Terminal Aerodrome Forecast
Issued by NWS

Home | Current Version | Previous Version | Text Only | Print | Product List | Glossary On
Versions: 1 2 3 4 5 6 7 8 9 10 11 12 13 14 15 16 17 18 19 20
000
FTAK31 PANC 261154 AAA
TAFADL
TAF AMD
PADL 261154Z 2612/2712 VRB05KT P6SM VCSH FEW025 SCT050 OVC060
      TEMPO 2612/2615 BKN025 OVC040
     FM261500 12006KT P6SM VCSH SCT025 OVC050
     FM262000 14010KT P6SM -SHRA BKN025 OVC040
     FM270500 10007KT P6SM -SHRA BKN035 OVC050=

USA.gov is the U.S. government's official web portal to all federal, state and local government web resources and services.